createdAt,value
2019-03-29T00:01:59.919Z,3.93
2019-03-29T00:04:27.510Z,3.88
2019-03-29T00:06:55.100Z,3.82
2019-03-29T00:09:22.778Z,3.75
2019-03-29T00:12:13.207Z,3.74
2019-03-29T00:14:41.977Z,3.75
2019-03-29T00:17:09.838Z,3.77
2019-03-29T00:19:38.541Z,3.76
2019-03-29T00:22:06.163Z,3.76
2019-03-29T00:24:34.104Z,3.77
2019-03-29T00:27:01.722Z,3.74
2019-03-29T00:29:29.994Z,3.72
2019-03-29T00:31:57.727Z,3.69
2019-03-29T00:34:25.359Z,3.66
2019-03-29T00:36:52.936Z,3.64
2019-03-29T00:39:20.552Z,3.63
2019-03-29T00:41:48.210Z,3.64
2019-03-29T00:44:15.800Z,3.63
2019-03-29T00:46:43.418Z,3.62
2019-03-29T00:49:11.009Z,3.60
2019-03-29T00:51:38.765Z,3.59
2019-03-29T00:54:06.406Z,3.54
2019-03-29T00:56:33.984Z,3.53
2019-03-29T00:59:01.599Z,3.50
2019-03-29T01:01:29.276Z,3.47
2019-03-29T01:03:58.056Z,3.45
2019-03-29T01:06:25.665Z,3.43
2019-03-29T01:08:53.284Z,3.40
2019-03-29T01:11:20.959Z,3.37
2019-03-29T01:13:48.545Z,3.32
2019-03-29T01:16:16.146Z,3.29
2019-03-29T01:18:43.752Z,3.24
2019-03-29T01:21:11.329Z,3.25
2019-03-29T01:23:39.083Z,3.25
2019-03-29T01:26:06.761Z,3.24
2019-03-29T01:28:46.955Z,3.23
2019-03-29T01:31:15.145Z,3.18
2019-03-29T01:34:01.975Z,3.15
2019-03-29T01:36:29.625Z,3.17
2019-03-29T01:38:58.434Z,3.14
2019-03-29T01:41:27.128Z,3.12
2019-03-29T01:43:54.994Z,3.12
2019-03-29T01:46:22.589Z,3.08
2019-03-29T01:48:50.178Z,3.03
2019-03-29T01:51:17.823Z,3.02
2019-03-29T01:53:45.418Z,3.01
2019-03-29T01:56:13.009Z,2.99
2019-03-29T01:58:40.608Z,3.00
2019-03-29T02:01:08.190Z,3.02
2019-03-29T02:03:35.896Z,3.03
2019-03-29T02:06:06.330Z,3.03
2019-03-29T02:08:36.003Z,3.01
2019-03-29T02:11:03.541Z,3.00
2019-03-29T02:13:31.190Z,2.95
2019-03-29T02:15:58.878Z,2.91
2019-03-29T02:18:26.482Z,2.89
2019-03-29T02:20:54.115Z,2.89
2019-03-29T02:23:21.705Z,2.91
2019-03-29T02:25:49.300Z,2.91
2019-03-29T02:28:16.900Z,2.87
2019-03-29T02:30:44.524Z,2.86
2019-03-29T02:33:12.191Z,2.82
2019-03-29T02:35:40.046Z,2.80
2019-03-29T02:38:07.638Z,2.80
2019-03-29T02:40:35.463Z,2.76
2019-03-29T02:43:03.067Z,2.73
2019-03-29T02:45:31.105Z,2.73
2019-03-29T02:47:58.758Z,2.71
2019-03-29T02:50:26.334Z,2.68
2019-03-29T02:52:54.028Z,2.68
2019-03-29T02:55:21.659Z,2.65
2019-03-29T02:57:49.250Z,2.66
2019-03-29T03:00:17.241Z,2.65
2019-03-29T03:02:44.848Z,2.63
2019-03-29T03:05:12.637Z,2.62
2019-03-29T03:07:40.221Z,2.61
2019-03-29T03:10:10.121Z,2.62
2019-03-29T03:12:37.795Z,2.61
2019-03-29T03:15:06.594Z,2.59
2019-03-29T03:17:34.234Z,2.57
2019-03-29T03:20:01.858Z,2.57
2019-03-29T03:22:29.430Z,2.56
2019-03-29T03:24:57.122Z,2.55
2019-03-29T03:27:24.815Z,2.54
2019-03-29T03:29:52.383Z,2.54
2019-03-29T03:32:20.037Z,2.55
2019-03-29T03:34:47.739Z,2.60
2019-03-29T03:37:15.303Z,2.70
2019-03-29T03:39:42.879Z,2.69
2019-03-29T03:42:10.496Z,2.68
2019-03-29T03:44:38.105Z,2.68
2019-03-29T03:47:05.693Z,2.68
2019-03-29T03:49:33.303Z,2.65
2019-03-29T03:52:00.994Z,2.65
2019-03-29T03:54:28.707Z,2.62
2019-03-29T03:56:56.684Z,2.59
2019-03-29T03:59:25.144Z,2.55
2019-03-29T04:01:52.721Z,2.50
2019-03-29T04:04:20.338Z,2.47
2019-03-29T04:06:47.974Z,2.43
2019-03-29T04:09:15.545Z,2.42
2019-03-29T04:11:43.118Z,2.42
2019-03-29T04:14:10.746Z,2.42
2019-03-29T04:16:38.316Z,2.40
2019-03-29T04:19:05.900Z,2.37
2019-03-29T04:21:33.561Z,2.34
2019-03-29T04:24:01.107Z,2.30
2019-03-29T04:26:28.723Z,2.29
2019-03-29T04:29:04.113Z,2.29
2019-03-29T04:31:25.830Z,2.31
2019-03-29T04:33:53.429Z,2.29
2019-03-29T04:36:21.139Z,2.24
2019-03-29T04:38:48.810Z,2.20
2019-03-29T04:41:16.368Z,2.20
2019-03-29T04:44:02.646Z,2.21
2019-03-29T04:46:30.223Z,2.20
2019-03-29T04:49:17.933Z,2.18
2019-03-29T04:51:45.681Z,2.16
2019-03-29T04:54:13.278Z,2.18
2019-03-29T04:56:40.887Z,2.16
2019-03-29T04:59:08.463Z,2.13
2019-03-29T05:01:36.146Z,2.08
2019-03-29T05:04:03.738Z,2.06
2019-03-29T05:06:31.429Z,2.06
2019-03-29T05:09:07.163Z,2.07
2019-03-29T05:11:34.742Z,2.08
2019-03-29T05:14:02.325Z,2.06
2019-03-29T05:16:29.942Z,2.06
2019-03-29T05:18:57.521Z,2.08
2019-03-29T05:21:25.168Z,2.09
2019-03-29T05:23:52.784Z,2.09
2019-03-29T05:26:20.382Z,2.09
2019-03-29T05:28:47.944Z,2.09
2019-03-29T05:31:15.560Z,2.09
2019-03-29T05:33:43.167Z,2.07
2019-03-29T05:36:10.816Z,2.10
2019-03-29T05:38:38.502Z,2.12
2019-03-29T05:41:06.109Z,2.15
2019-03-29T05:43:33.705Z,2.18
2019-03-29T05:46:01.294Z,2.23
2019-03-29T05:48:28.912Z,2.25
2019-03-29T05:50:56.510Z,2.28
2019-03-29T05:53:24.187Z,2.32
2019-03-29T05:55:51.812Z,2.34
2019-03-29T05:58:19.422Z,2.40
2019-03-29T06:00:47.035Z,2.49
2019-03-29T06:03:14.715Z,2.54
2019-03-29T06:05:42.291Z,2.62
2019-03-29T06:08:09.874Z,2.67
2019-03-29T06:10:48.317Z,2.73
2019-03-29T06:13:07.975Z,2.82
2019-03-29T06:15:35.589Z,2.89
2019-03-29T06:18:03.524Z,2.94
2019-03-29T06:20:31.115Z,3.01
2019-03-29T06:22:58.703Z,3.11
2019-03-29T06:25:26.345Z,3.23
2019-03-29T06:27:53.972Z,3.34
2019-03-29T06:30:32.934Z,3.56
2019-03-29T06:33:00.588Z,3.92
2019-03-29T06:35:32.471Z,4.25
2019-03-29T06:38:02.097Z,4.50
2019-03-29T06:40:29.784Z,4.71
2019-03-29T06:42:57.383Z,4.82
2019-03-29T06:45:25.023Z,4.84
2019-03-29T06:47:52.700Z,4.90
2019-03-29T06:50:20.296Z,5.00
2019-03-29T06:52:47.903Z,5.09
2019-03-29T06:55:15.497Z,5.23
2019-03-29T06:57:43.094Z,5.39
2019-03-29T07:00:10.854Z,5.51
2019-03-29T07:02:38.454Z,5.57
2019-03-29T07:05:06.482Z,5.65
2019-03-29T07:07:34.100Z,5.73
2019-03-29T07:10:01.730Z,5.82
2019-03-29T07:12:29.386Z,5.93
2019-03-29T07:15:17.096Z,6.03
2019-03-29T07:17:44.875Z,6.10
2019-03-29T07:20:12.537Z,6.20
2019-03-29T07:22:40.148Z,6.37
2019-03-29T07:25:07.967Z,6.53
2019-03-29T07:27:44.704Z,6.62
2019-03-29T07:30:06.374Z,6.76
2019-03-29T07:32:34.111Z,6.87
2019-03-29T07:35:01.771Z,6.93
2019-03-29T07:37:29.350Z,7.07
2019-03-29T07:39:57.863Z,7.23
2019-03-29T07:42:25.500Z,7.42
2019-03-29T07:44:53.124Z,7.57
2019-03-29T07:47:20.918Z,7.60
2019-03-29T07:49:48.727Z,7.70
2019-03-29T07:52:16.319Z,7.83
2019-03-29T07:54:43.911Z,7.92
2019-03-29T07:57:11.533Z,8.02
2019-03-29T07:59:39.143Z,8.08
2019-03-29T08:02:06.755Z,8.21
2019-03-29T08:04:34.393Z,8.34
2019-03-29T08:07:02.068Z,8.42
2019-03-29T08:09:29.861Z,8.49
2019-03-29T08:11:57.598Z,8.58
2019-03-29T08:14:25.197Z,8.70
2019-03-29T08:16:52.800Z,8.79
2019-03-29T08:19:20.535Z,8.96
2019-03-29T08:21:48.136Z,9.07
2019-03-29T08:24:15.720Z,9.15
2019-03-29T08:26:43.355Z,9.24
2019-03-29T08:29:10.973Z,9.36
2019-03-29T08:31:38.689Z,9.46
2019-03-29T08:34:06.344Z,9.56
2019-03-29T08:36:33.944Z,9.69
2019-03-29T08:39:01.525Z,9.73
2019-03-29T08:41:29.152Z,9.79
2019-03-29T08:43:56.946Z,9.82
2019-03-29T08:46:24.571Z,9.86
2019-03-29T08:48:52.226Z,9.97
2019-03-29T08:51:19.825Z,10.10
2019-03-29T08:53:47.410Z,10.18
2019-03-29T08:56:15.053Z,10.23
2019-03-29T08:58:42.627Z,10.31
2019-03-29T09:01:10.203Z,10.38
2019-03-29T09:03:37.951Z,10.48
2019-03-29T09:06:05.991Z,10.58
2019-03-29T09:08:33.585Z,10.71
2019-03-29T09:11:01.225Z,10.81
2019-03-29T09:13:33.594Z,10.89
2019-03-29T09:16:07.367Z,11.01
2019-03-29T09:18:35.057Z,11.05
2019-03-29T09:21:02.788Z,11.12
2019-03-29T09:23:30.628Z,11.22
2019-03-29T09:25:58.236Z,11.28
2019-03-29T09:28:26.951Z,11.35
2019-03-29T09:30:56.478Z,11.45
2019-03-29T09:33:24.189Z,11.48
2019-03-29T09:35:53.987Z,11.55
2019-03-29T09:38:21.640Z,11.69
2019-03-29T09:40:58.677Z,11.84
2019-03-29T09:43:26.819Z,11.92
2019-03-29T09:45:54.500Z,12.00
2019-03-29T09:48:22.109Z,12.15
2019-03-29T09:50:50.922Z,12.16
2019-03-29T09:53:18.742Z,12.16
2019-03-29T09:55:46.410Z,12.28
2019-03-29T09:58:16.575Z,12.37
2019-03-29T10:00:43.547Z,12.47
2019-03-29T10:03:11.136Z,12.50
2019-03-29T10:05:38.765Z,12.64
2019-03-29T10:08:06.362Z,12.70
2019-03-29T10:10:34.740Z,12.76
2019-03-29T10:13:02.507Z,12.95
2019-03-29T10:15:30.139Z,13.11
2019-03-29T10:17:57.709Z,13.18
2019-03-29T10:20:25.441Z,13.27
2019-03-29T10:22:53.123Z,13.29
2019-03-29T10:25:20.693Z,13.28
2019-03-29T10:27:48.319Z,13.34
2019-03-29T10:30:38.147Z,13.40
2019-03-29T10:33:05.911Z,13.47
2019-03-29T10:35:33.681Z,13.48
2019-03-29T10:38:03.760Z,13.53
2019-03-29T10:40:31.409Z,13.65
2019-03-29T10:42:59.028Z,13.81
2019-03-29T10:45:26.715Z,13.88
2019-03-29T10:47:54.459Z,13.90
2019-03-29T10:51:04.213Z,13.95
2019-03-29T10:53:31.812Z,14.06
2019-03-29T10:55:59.504Z,14.16
2019-03-29T10:58:27.126Z,14.27
2019-03-29T11:00:54.719Z,14.33
2019-03-29T11:03:22.304Z,14.53
2019-03-29T11:05:49.953Z,14.60
2019-03-29T11:08:17.624Z,14.73
2019-03-29T11:10:45.492Z,14.90
2019-03-29T11:13:14.373Z,14.94
2019-03-29T11:15:42.299Z,14.97
2019-03-29T11:18:09.921Z,14.93
2019-03-29T11:20:37.532Z,15.04
2019-03-29T11:23:05.259Z,15.13
2019-03-29T11:25:32.857Z,15.25
2019-03-29T11:28:00.487Z,15.36
2019-03-29T11:30:41.451Z,15.48
2019-03-29T11:32:57.690Z,15.57
2019-03-29T11:35:25.326Z,15.76
2019-03-29T11:37:52.966Z,15.77
2019-03-29T11:40:20.997Z,15.86
2019-03-29T11:42:48.592Z,15.97
2019-03-29T11:45:16.194Z,16.11
2019-03-29T11:47:43.801Z,16.20
2019-03-29T11:50:11.664Z,16.27
2019-03-29T11:52:39.245Z,16.25
2019-03-29T11:55:06.960Z,16.26
2019-03-29T11:57:34.580Z,16.40
2019-03-29T12:00:02.192Z,16.51
2019-03-29T12:02:31.492Z,16.61
2019-03-29T12:04:59.321Z,16.78
2019-03-29T12:07:27.107Z,16.87
2019-03-29T12:09:54.699Z,17.05
2019-03-29T12:12:22.543Z,17.06
2019-03-29T12:14:50.216Z,17.15
2019-03-29T12:17:17.811Z,17.30
2019-03-29T12:19:45.436Z,17.30
2019-03-29T12:22:13.059Z,17.22
2019-03-29T12:24:40.702Z,17.26
2019-03-29T12:27:08.346Z,17.51
2019-03-29T12:29:35.989Z,17.77
2019-03-29T12:32:03.979Z,17.99
2019-03-29T12:34:31.606Z,18.23
2019-03-29T12:36:59.229Z,18.46
2019-03-29T12:39:26.799Z,18.64
2019-03-29T12:41:54.650Z,18.78
2019-03-29T12:44:22.262Z,18.83
2019-03-29T12:46:49.943Z,19.04
2019-03-29T12:49:17.745Z,19.27
2019-03-29T12:51:47.014Z,19.76
2019-03-29T12:54:15.001Z,20.13
2019-03-29T12:56:42.680Z,20.52
2019-03-29T12:59:10.284Z,20.91
2019-03-29T13:01:39.857Z,21.06
2019-03-29T13:04:09.710Z,21.17
2019-03-29T13:06:36.857Z,21.40
2019-03-29T13:09:06.297Z,21.66
2019-03-29T13:11:33.945Z,21.81
2019-03-29T13:14:10.035Z,22.13
2019-03-29T13:16:31.107Z,22.29
2019-03-29T13:18:58.783Z,22.56
2019-03-29T13:21:26.365Z,22.69
2019-03-29T13:23:53.947Z,22.91
2019-03-29T13:26:21.571Z,22.80
2019-03-29T13:28:49.189Z,22.77
2019-03-29T13:31:16.779Z,22.73
2019-03-29T13:33:44.461Z,22.82
2019-03-29T13:36:12.103Z,22.94
2019-03-29T13:38:40.146Z,22.77
2019-03-29T13:41:07.784Z,22.94
2019-03-29T13:43:35.370Z,23.07
2019-03-29T13:46:02.963Z,22.90
2019-03-29T13:48:30.595Z,22.99
2019-03-29T13:50:59.642Z,23.16
2019-03-29T13:53:27.585Z,23.06
2019-03-29T13:55:55.330Z,23.04
2019-03-29T13:58:22.921Z,22.91
2019-03-29T14:00:50.597Z,23.00
2019-03-29T14:03:18.191Z,22.91
2019-03-29T14:05:45.805Z,22.97
2019-03-29T14:08:13.448Z,23.02
2019-03-29T14:10:41.042Z,23.03
2019-03-29T14:13:08.666Z,23.12
2019-03-29T14:15:36.308Z,22.89
2019-03-29T14:18:03.939Z,22.76
2019-03-29T14:20:33.128Z,22.76
2019-03-29T14:23:01.835Z,22.77
2019-03-29T14:25:29.441Z,22.76
2019-03-29T14:27:57.022Z,22.69
2019-03-29T14:30:24.628Z,22.60
2019-03-29T14:32:52.336Z,22.51
2019-03-29T14:35:19.950Z,22.31
2019-03-29T14:37:47.659Z,22.06
2019-03-29T14:40:15.530Z,21.72
2019-03-29T14:42:43.124Z,21.53
2019-03-29T14:45:11.161Z,21.49
2019-03-29T14:47:43.321Z,21.32
2019-03-29T14:50:10.688Z,21.28
2019-03-29T14:52:38.807Z,21.31
2019-03-29T14:55:06.961Z,21.46
2019-03-29T14:57:34.650Z,21.42
2019-03-29T15:00:02.315Z,21.08
2019-03-29T15:02:29.925Z,20.97
2019-03-29T15:04:57.651Z,20.96
2019-03-29T15:07:25.265Z,20.87
2019-03-29T15:09:54.167Z,20.68
2019-03-29T15:12:21.752Z,20.73
2019-03-29T15:14:49.400Z,20.74
2019-03-29T15:17:17.013Z,20.78
2019-03-29T15:19:44.689Z,20.63
2019-03-29T15:22:12.263Z,20.56
2019-03-29T15:24:39.875Z,20.58
2019-03-29T15:27:07.452Z,20.54
2019-03-29T15:29:35.080Z,20.48
2019-03-29T15:32:02.688Z,20.43
2019-03-29T15:34:30.282Z,20.29
2019-03-29T15:36:57.922Z,20.17
2019-03-29T15:39:25.696Z,20.17
2019-03-29T15:41:53.304Z,20.30
2019-03-29T15:44:20.910Z,20.26
2019-03-29T15:46:48.536Z,20.15
2019-03-29T15:49:16.237Z,20.11
2019-03-29T15:51:43.885Z,20.01
2019-03-29T15:54:11.578Z,19.89
2019-03-29T15:56:39.180Z,19.90
2019-03-29T15:59:06.758Z,19.82
2019-03-29T16:01:34.384Z,19.66
2019-03-29T16:04:02.142Z,19.62
2019-03-29T16:06:29.816Z,19.52
2019-03-29T16:08:57.564Z,19.45
2019-03-29T16:11:25.307Z,19.55
2019-03-29T16:13:52.899Z,19.63
2019-03-29T16:16:20.718Z,19.56
2019-03-29T16:18:48.305Z,19.49
2019-03-29T16:21:15.918Z,19.50
2019-03-29T16:23:43.555Z,19.42
2019-03-29T16:26:11.165Z,19.35
2019-03-29T16:28:38.746Z,19.26
2019-03-29T16:31:06.412Z,19.17
2019-03-29T16:33:34.019Z,19.12
2019-03-29T16:36:01.704Z,19.02
2019-03-29T16:38:29.359Z,18.78
2019-03-29T16:40:56.969Z,18.62
2019-03-29T16:43:24.628Z,18.45
2019-03-29T16:46:28.521Z,18.27
2019-03-29T16:48:56.307Z,18.12
2019-03-29T16:51:23.910Z,18.00
2019-03-29T16:53:51.546Z,17.93
2019-03-29T16:56:19.226Z,17.87
2019-03-29T16:58:46.939Z,17.73
2019-03-29T17:01:14.688Z,17.64
2019-03-29T17:03:42.321Z,17.50
2019-03-29T17:06:09.975Z,17.38
2019-03-29T17:08:37.584Z,17.24
2019-03-29T17:11:05.238Z,17.15
2019-03-29T17:13:32.827Z,17.09
2019-03-29T17:16:01.990Z,16.93
2019-03-29T17:18:30.012Z,16.79
2019-03-29T17:20:57.854Z,16.59
2019-03-29T17:23:25.416Z,16.44
2019-03-29T17:25:53.035Z,16.34
2019-03-29T17:28:20.638Z,16.25
2019-03-29T17:31:36.932Z,16.11
2019-03-29T17:34:04.562Z,15.88
2019-03-29T17:36:32.243Z,15.56
2019-03-29T17:38:59.840Z,15.33
2019-03-29T17:41:27.427Z,15.15
2019-03-29T17:43:55.039Z,15.00
2019-03-29T17:46:22.639Z,14.88
2019-03-29T17:48:50.232Z,14.76
2019-03-29T17:51:17.864Z,14.57
2019-03-29T17:53:45.455Z,14.37
2019-03-29T17:56:13.078Z,14.23
2019-03-29T17:58:40.844Z,14.04
2019-03-29T18:01:08.446Z,13.82
2019-03-29T18:03:37.151Z,13.57
2019-03-29T18:06:04.790Z,13.37
2019-03-29T18:08:32.364Z,13.17
2019-03-29T18:11:00.004Z,13.05
2019-03-29T18:13:27.597Z,12.89
2019-03-29T18:15:55.253Z,12.73
2019-03-29T18:18:22.879Z,12.59
2019-03-29T18:20:50.571Z,12.43
2019-03-29T18:23:18.193Z,12.24
2019-03-29T18:25:45.913Z,12.08
2019-03-29T18:28:13.533Z,11.99
2019-03-29T18:30:43.177Z,11.93
2019-03-29T18:33:10.928Z,11.77
2019-03-29T18:35:42.966Z,11.58
2019-03-29T18:38:10.624Z,11.42
2019-03-29T18:40:38.283Z,11.30
2019-03-29T18:43:05.936Z,11.25
2019-03-29T18:45:33.673Z,11.15
2019-03-29T18:48:08.930Z,10.96
2019-03-29T18:50:37.247Z,10.80
2019-03-29T18:53:06.241Z,10.62
2019-03-29T18:55:33.968Z,10.48
2019-03-29T18:58:01.565Z,10.40
2019-03-29T19:00:33.090Z,10.32
2019-03-29T19:03:01.760Z,10.21
2019-03-29T19:05:29.859Z,10.15
2019-03-29T19:07:57.511Z,10.10
2019-03-29T19:10:25.260Z,10.06
2019-03-29T19:12:53.978Z,9.98
2019-03-29T19:15:23.157Z,9.91
2019-03-29T19:17:50.807Z,9.86
2019-03-29T19:20:27.395Z,9.81
2019-03-29T19:22:47.955Z,9.74
2019-03-29T19:25:15.666Z,9.65
2019-03-29T19:27:43.342Z,9.57
2019-03-29T19:30:12.430Z,9.50
2019-03-29T19:32:40.056Z,9.41
2019-03-29T19:35:07.869Z,9.30
2019-03-29T19:37:35.521Z,9.24
2019-03-29T19:40:03.561Z,9.23
2019-03-29T19:42:31.198Z,9.18
2019-03-29T19:44:59.222Z,9.11
2019-03-29T19:47:26.971Z,9.09
2019-03-29T19:49:55.494Z,9.03
2019-03-29T19:52:25.102Z,8.89
2019-03-29T19:54:52.833Z,8.82
2019-03-29T19:57:20.490Z,8.73
2019-03-29T19:59:48.804Z,8.66
2019-03-29T20:02:16.633Z,8.59
2019-03-29T20:04:44.231Z,8.52
2019-03-29T20:07:11.854Z,8.50
2019-03-29T20:09:42.040Z,8.44
2019-03-29T20:12:09.028Z,8.42
2019-03-29T20:14:36.672Z,8.43
2019-03-29T20:17:04.331Z,8.44
2019-03-29T20:19:32.173Z,8.40
2019-03-29T20:21:59.765Z,8.34
2019-03-29T20:24:27.419Z,8.25
2019-03-29T20:26:55.039Z,8.21
2019-03-29T20:29:22.633Z,8.16
2019-03-29T20:31:50.821Z,8.12
2019-03-29T20:34:18.829Z,8.09
2019-03-29T20:36:46.498Z,8.11
2019-03-29T20:39:14.199Z,8.06
2019-03-29T20:41:42.061Z,7.98
2019-03-29T20:44:09.647Z,7.92
2019-03-29T20:46:37.405Z,7.84
2019-03-29T20:49:05.198Z,7.73
2019-03-29T20:51:32.818Z,7.68
2019-03-29T20:54:00.601Z,7.61
2019-03-29T20:56:28.918Z,7.58
2019-03-29T20:58:56.735Z,7.54
2019-03-29T21:01:24.390Z,7.52
2019-03-29T21:03:52.023Z,7.50
2019-03-29T21:06:19.758Z,7.49
2019-03-29T21:08:47.629Z,7.45
2019-03-29T21:11:15.251Z,7.42
2019-03-29T21:13:43.055Z,7.36
2019-03-29T21:16:10.925Z,7.30
2019-03-29T21:18:38.540Z,7.23
2019-03-29T21:21:06.138Z,7.20
2019-03-29T21:23:33.797Z,7.15
2019-03-29T21:26:01.394Z,7.19
2019-03-29T21:28:28.982Z,7.19
2019-03-29T21:30:56.920Z,7.11
2019-03-29T21:33:24.510Z,7.07
2019-03-29T21:35:53.354Z,7.03
2019-03-29T21:38:21.083Z,6.95
2019-03-29T21:40:48.715Z,6.85
2019-03-29T21:43:16.355Z,6.82
2019-03-29T21:45:43.985Z,6.82
2019-03-29T21:48:27.983Z,6.79
2019-03-29T21:50:41.386Z,6.71
2019-03-29T21:53:09.101Z,6.63
2019-03-29T21:55:36.725Z,6.57
2019-03-29T21:58:04.404Z,6.55
2019-03-29T22:00:32.072Z,6.51
2019-03-29T22:02:59.732Z,6.48
2019-03-29T22:05:28.645Z,6.43
2019-03-29T22:07:56.276Z,6.40
2019-03-29T22:10:24.075Z,6.42
2019-03-29T22:12:51.671Z,6.40
2019-03-29T22:15:19.280Z,6.38
2019-03-29T22:17:47.227Z,6.34
2019-03-29T22:20:14.943Z,6.29
2019-03-29T22:22:42.584Z,6.23
2019-03-29T22:25:11.120Z,6.20
2019-03-29T22:27:38.726Z,6.18
2019-03-29T22:30:07.104Z,6.12
2019-03-29T22:32:34.771Z,6.11
2019-03-29T22:35:02.785Z,6.09
2019-03-29T22:37:30.385Z,6.07
2019-03-29T22:39:58.016Z,6.05
2019-03-29T22:42:25.667Z,6.03
2019-03-29T22:44:53.275Z,6.00
2019-03-29T22:47:20.879Z,5.98
2019-03-29T22:49:48.542Z,5.98
2019-03-29T22:52:16.169Z,5.90
2019-03-29T22:54:43.777Z,5.82
2019-03-29T22:57:11.416Z,5.81
2019-03-29T22:59:39.122Z,5.80
2019-03-29T23:02:07.031Z,5.82
2019-03-29T23:04:34.683Z,5.79
2019-03-29T23:07:02.431Z,5.73
2019-03-29T23:09:30.047Z,5.70
2019-03-29T23:11:57.680Z,5.67
2019-03-29T23:14:25.327Z,5.64
2019-03-29T23:16:52.995Z,5.62
2019-03-29T23:19:21.718Z,5.59
2019-03-29T23:21:49.347Z,5.59
2019-03-29T23:24:19.256Z,5.61
2019-03-29T23:26:47.187Z,5.59
2019-03-29T23:29:14.949Z,5.53
2019-03-29T23:31:42.543Z,5.47
2019-03-29T23:34:10.187Z,5.40
2019-03-29T23:36:37.794Z,5.35
2019-03-29T23:39:05.803Z,5.33
2019-03-29T23:41:33.454Z,5.30
2019-03-29T23:44:01.063Z,5.24
2019-03-29T23:46:28.656Z,5.20
2019-03-29T23:48:56.301Z,5.18
2019-03-29T23:51:23.925Z,5.12
2019-03-29T23:53:51.507Z,5.10
2019-03-29T23:56:19.165Z,5.14
2019-03-29T23:58:46.769Z,5.12
